ADDS METAR Data INFO
IDs: Format: Raw Decoded Include TAF

Data at: 1236 UTC 22 Feb 2018

PFSH 221229Z AUTO 18015KT 3SM BR BKN006 OVC014 M01/M01 A2981 RMK AO2 PWINO FZRANO $
PFSH 221222Z AUTO 18016KT 2SM BR SCT006 OVC014 M01/M01 A2981 RMK AO2 PWINO FZRANO $
PFSH 221212Z AUTO 18014KT 2 1/2SM BR OVC013 M01/M02 A2981 RMK AO2 PWINO FZRANO $
PFSH 221156Z AUTO 17014KT 4SM BR OVC009 M01/M02 A2982 RMK AO2 SLP097 T10061017 10011 21011 58019 PWINO FZRANO $
PFSH 221120Z AUTO 18012KT 7SM OVC009 M01/M01 A2983 RMK AO2 CIG 007V011 PWINO FZRANO $
PFSH 221056Z AUTO 19016KT 9SM OVC011 M01/M01 A2984 RMK AO2 SLP105 T10061011 PWINO FZRANO $
PFSH 221034Z AUTO 19014KT 7SM SCT009 OVC014 M01/M01 A2985 RMK AO2 PWINO FZRANO $
PFSH 221026Z AUTO 19014KT 3SM BR FEW007 BKN015 OVC021 M01/M02 A2985 RMK AO2 PWINO FZRANO $
PFSH 221023Z AUTO 19014KT 2 1/2SM BR FEW007 BKN012 OVC021 M01/M02 A2985 RMK AO2 VIS 1 1/2V5 PWINO FZRANO $
PFSH 221013Z AUTO 19015KT 4SM BR SCT010 BKN016 OVC021 M01/M02 A2986 RMK AO2 PWINO FZRANO $
PFSH 220956Z AUTO 19015KT 3SM BR FEW005 BKN010 OVC021 M01/M02 A2986 RMK AO2 CIG 007V014 SLP111 T10111017 PWINO FZRANO $
PFSH 220856Z AUTO 21017KT 7SM FEW006 OVC021 M01/M01 A2987 RMK AO2 SLP116 T10061011 400111028 50003 PWINO FZRANO $
PFSH 220818Z AUTO 21018KT 10SM SCT007 OVC023 M01/M01 A2987 RMK AO2 PWINO FZRANO $
PFSH 220756Z AUTO 20019KT 9SM BKN007 OVC023 00/M01 A2987 RMK AO2 PK WND 20026/0712 SLP116 T00001006 PWINO FZRANO $
PFSH 220739Z AUTO 21017KT 9SM FEW009 BKN023 OVC031 00/M01 A2988 RMK AO2 PK WND 20026/0712 PWINO FZRANO $
PFSH 220708Z AUTO 20021KT 5SM BR FEW008 BKN013 OVC017 01/M01 A2988 RMK AO2 PK WND 20026/0659 PWINO FZRANO $
PFSH 220656Z AUTO 19021KT 5SM BR OVC017 01/M01 A2987 RMK AO2 SLP116 T00061006 PWINO FZRANO $
PFSH 220556Z AUTO 16013KT 9SM OVC025 01/00 A2987 RMK AO2 SLP113 T00060000 10011 20000 56034 PWINO FZRANO $
PFSH 220456Z AUTO 17015KT 9SM BKN015 OVC027 01/M01 A2989 RMK AO2 SLP120 T00061006 PWINO FZRANO $
PFSH 220435Z AUTO 17015KT 9SM FEW015 BKN027 OVC070 01/M01 A2990 RMK AO2 PWINO FZRANO $
PFSH 220418Z AUTO 16017KT 9SM FEW011 BKN034 OVC070 01/M01 A2990 RMK AO2 PWINO FZRANO $
PFSH 220356Z AUTO 17014KT 8SM BKN011 BKN019 OVC040 01/M01 A2992 RMK AO2 CIG 008V013 SLP132 T00061006 PWINO FZRANO $
PFSH 220014Z AUTO 17016KT 9SM OVC015 01/M02 A3002 RMK AO2 PWINO FZRANO $
PFSH 212356Z AUTO 17017KT 9SM OVC013 01/M02 A3003 RMK AO2 SLP168 T00061017 10011 21011 58009 PWINO FZRANO $
PFSH 212256Z AUTO 17020KT 9SM OVC013 01/M02 A3004 RMK AO2 SLP174 T00111017 PWINO FZRANO $
PFSH 212156Z AUTO 18020KT 4SM BR OVC011 01/M01 A3005 RMK AO2 SLP177 T00111011 PWINO FZRANO $
PFSH 212151Z AUTO 18020KT 2 1/2SM BR OVC011 01/M01 A3006 RMK AO2 PWINO FZRANO $
PFSH 212103Z AUTO 16018KT 8SM OVC013 01/M02 A3005 RMK AO2 PWINO FZRANO $
PFSH 212056Z AUTO 17017KT 8SM OVC015 01/M02 A3006 RMK AO2 SLP178 T00061017 56013 PWINO FZRANO $
PFSH 211956Z AUTO 16016KT 9SM OVC019 00/M02 A3006 RMK AO2 SLP179 T00001017 PWINO FZRANO $
PFSH 211920Z AUTO 14018KT 6SM BR BKN019 BKN028 OVC035 M01/M02 A3006 RMK AO2 PWINO FZRANO $
PFSH 211856Z AUTO 14019KT 6SM BR FEW019 SCT026 OVC032 M01/M03 A3008 RMK AO2 SLP185 T10111028 PWINO FZRANO $
PFSH 211824Z AUTO 13018KT 3SM BR SCT024 BKN030 OVC055 M01/M02 A3009 RMK AO2 PWINO FZRANO $
PFSH 211756Z AUTO 14019KT 2 1/2SM BR BKN024 OVC031 M01/M03 A3010 RMK AO2 SLP192 T10111028 11006 21028 58025 PWINO FZRANO $
PFSH 211737Z AUTO 14020KT 3SM BR SCT025 BKN030 OVC038 M01/M03 A3011 RMK AO2 PWINO FZRANO $
PFSH 211732Z AUTO 14018KT 2 1/2SM BR FEW020 BKN025 OVC041 M01/M03 A3012 RMK AO2 PWINO FZRANO $
PFSH 211703Z AUTO 13016KT 3SM BR SCT020 OVC029 M01/M03 A3013 RMK AO2 PWINO FZRANO $
PFSH 211656Z AUTO 13015KT 2 1/2SM BR SCT020 BKN029 OVC036 M01/M03 A3014 RMK AO2 SLP205 T10111028 PWINO FZRANO $
PFSH 211654Z AUTO 14016KT 2 1/2SM BR SCT020 BKN027 OVC032 M01/M03 A3014 RMK AO2 PWINO FZRANO $
PFSH 211556Z AUTO 13015KT 8SM SCT033 OVC044 M01/M03 A3017 RMK AO2 SLP216 T10111033 PWINO FZRANO $
PFSH 211456Z AUTO 13015KT 8SM BKN045 OVC055 M01/M04 A3019 RMK AO2 SLP223 T10111044 58038 PWINO FZRANO $
PFSH 211356Z AUTO 13015KT 8SM OVC042 M01/M04 A3023 RMK AO2 SLP236 T10111044 PWINO FZRANO $
PFSH 211256Z AUTO 14012KT 8SM OVC046 M02/M04 A3027 RMK AO2 SLP250 T10171044 PWINO FZRANO $
PFSH 210756Z AUTO 19014KT 7SM OVC060 M01/M03 A3035 RMK AO2 SLP279 T10111033 PWINO FZRANO
PFSH 210656Z AUTO 19017KT 7SM OVC055 M01/M03 A3035 RMK AO2 SLP278 T10111033 PWINO FZRANO
PFSH 210556Z AUTO 20020KT 7SM OVC060 M01/M03 A3035 RMK AO2 PK WND 20026/0526 SLP278 T10061033 10000 21006 58010 PWINO FZRANO